createdAt,value
2022-11-29T00:01:24.193Z,8.20
2022-11-29T00:03:51.761Z,8.10
2022-11-29T00:06:21.708Z,7.70
2022-11-29T00:08:50.039Z,8.00
2022-11-29T00:14:23.666Z,8.00
2022-11-29T00:17:03.635Z,8.10
2022-11-29T00:19:35.801Z,8.10
2022-11-29T00:22:03.861Z,8.10
2022-11-29T00:24:32.754Z,8.10
2022-11-29T00:27:00.746Z,8.10
2022-11-29T00:29:28.925Z,8.30
2022-11-29T00:31:56.084Z,8.10
2022-11-29T00:34:23.407Z,8.10
2022-11-29T00:36:50.556Z,8.30
2022-11-29T00:39:17.698Z,8.10
2022-11-29T00:41:44.944Z,7.80
2022-11-29T00:44:18.378Z,7.80
2022-11-29T00:46:47.509Z,8.40
2022-11-29T00:49:15.191Z,8.10
2022-11-29T00:51:42.314Z,8.10
2022-11-29T00:54:09.972Z,8.20
2022-11-29T00:56:37.570Z,8.20
2022-11-29T00:59:04.888Z,8.20
2022-11-29T01:01:32.090Z,8.20
2022-11-29T01:04:01.300Z,8.20
2022-11-29T01:06:28.632Z,8.40
2022-11-29T01:08:55.955Z,8.20
2022-11-29T01:11:25.846Z,8.20
2022-11-29T01:13:57.429Z,7.80
2022-11-29T01:16:26.279Z,7.80
2022-11-29T01:18:53.228Z,8.10
2022-11-29T01:21:22.454Z,8.00
2022-11-29T01:23:53.449Z,7.90
2022-11-29T01:26:25.876Z,8.20
2022-11-29T01:28:54.737Z,7.90
2022-11-29T01:31:28.093Z,7.90
2022-11-29T01:34:00.707Z,7.90
2022-11-29T01:36:27.896Z,7.90
2022-11-29T01:38:54.823Z,7.80
2022-11-29T01:41:25.039Z,7.80
2022-11-29T01:44:11.392Z,8.30
2022-11-29T01:46:41.052Z,7.90
2022-11-29T01:49:15.535Z,7.90
2022-11-29T01:51:45.943Z,8.20
2022-11-29T01:54:14.332Z,8.10
2022-11-29T01:56:43.111Z,7.90
2022-11-29T01:59:12.995Z,8.30
2022-11-29T02:01:39.879Z,7.90
2022-11-29T02:04:07.369Z,7.80
2022-11-29T02:06:34.910Z,7.80
2022-11-29T02:09:02.305Z,7.80
2022-11-29T02:11:52.437Z,7.80
2022-11-29T02:14:40.002Z,7.90
2022-11-29T02:17:38.176Z,7.90
2022-11-29T02:20:25.780Z,7.90
2022-11-29T02:23:17.497Z,7.90
2022-11-29T02:26:02.956Z,7.40
2022-11-29T02:28:41.736Z,7.80
2022-11-29T02:31:38.746Z,7.70
2022-11-29T02:34:30.351Z,7.70
2022-11-29T02:37:11.960Z,7.60
2022-11-29T02:39:57.879Z,7.60
2022-11-29T02:42:30.399Z,7.60
2022-11-29T02:45:10.849Z,7.50
2022-11-29T02:48:07.295Z,7.50
2022-11-29T02:51:00.006Z,7.50
2022-11-29T02:54:08.017Z,7.40
2022-11-29T02:56:40.712Z,7.40
2022-11-29T02:59:35.825Z,7.40
2022-11-29T03:02:25.066Z,7.40
2022-11-29T03:05:06.931Z,7.40
2022-11-29T03:07:39.813Z,7.40
2022-11-29T03:10:28.723Z,7.40
2022-11-29T03:12:56.619Z,7.40
2022-11-29T03:15:57.703Z,7.70
2022-11-29T03:18:55.905Z,7.40
2022-11-29T03:21:22.856Z,7.40
2022-11-29T03:23:58.717Z,7.40
2022-11-29T03:26:47.935Z,7.50
2022-11-29T03:29:38.742Z,7.50
2022-11-29T03:32:08.422Z,7.50
2022-11-29T03:34:57.459Z,7.50
2022-11-29T03:37:45.776Z,7.50
2022-11-29T03:40:24.406Z,7.50
2022-11-29T03:43:00.583Z,7.60
2022-11-29T03:45:48.513Z,7.90
2022-11-29T03:48:21.798Z,7.50
2022-11-29T03:51:04.116Z,7.50
2022-11-29T03:53:34.160Z,7.50
2022-11-29T03:56:03.518Z,7.50
2022-11-29T03:58:51.948Z,7.50
2022-11-29T04:01:21.667Z,7.50
2022-11-29T04:04:02.848Z,7.50
2022-11-29T04:06:38.221Z,7.30
2022-11-29T04:09:07.972Z,7.30
2022-11-29T04:11:55.829Z,7.30
2022-11-29T04:14:28.436Z,7.40
2022-11-29T04:17:17.185Z,7.40
2022-11-29T04:20:09.421Z,7.40
2022-11-29T04:22:57.757Z,7.40
2022-11-29T04:25:37.055Z,7.40
2022-11-29T04:28:31.788Z,7.40
2022-11-29T04:31:32.273Z,7.40
2022-11-29T04:33:59.048Z,7.40
2022-11-29T04:36:50.407Z,7.40
2022-11-29T04:39:42.018Z,7.40
2022-11-29T04:42:40.945Z,7.40
2022-11-29T04:45:38.590Z,7.40
2022-11-29T04:48:17.406Z,7.40
2022-11-29T04:51:06.250Z,7.40
2022-11-29T04:53:47.860Z,7.50
2022-11-29T04:56:25.257Z,7.40
2022-11-29T04:59:04.650Z,7.40
2022-11-29T05:01:45.623Z,7.30
2022-11-29T05:04:34.741Z,7.30
2022-11-29T05:07:14.449Z,7.40
2022-11-29T05:09:55.564Z,7.40
2022-11-29T05:12:51.483Z,7.40
2022-11-29T05:15:24.015Z,7.40
2022-11-29T05:18:22.787Z,7.40
2022-11-29T05:21:26.769Z,7.40
2022-11-29T05:24:19.712Z,7.40
2022-11-29T05:27:13.933Z,7.40
2022-11-29T05:29:55.466Z,7.50
2022-11-29T05:32:22.290Z,7.50
2022-11-29T05:34:55.751Z,7.50
2022-11-29T05:37:48.641Z,7.50
2022-11-29T05:40:43.173Z,8.00
2022-11-29T05:43:28.042Z,7.60
2022-11-29T05:46:19.854Z,7.60
2022-11-29T05:49:13.348Z,7.50
2022-11-29T05:51:44.705Z,7.60
2022-11-29T05:54:32.705Z,7.60
2022-11-29T05:57:33.755Z,7.50
2022-11-29T06:00:04.339Z,7.60
2022-11-29T06:03:03.372Z,7.60
2022-11-29T06:05:36.349Z,7.60
2022-11-29T06:08:18.578Z,7.60
2022-11-29T06:11:06.706Z,7.60
2022-11-29T06:14:03.270Z,7.90
2022-11-29T06:16:40.012Z,7.60
2022-11-29T06:19:44.496Z,7.60
2022-11-29T06:22:46.062Z,7.60
2022-11-29T06:26:04.037Z,7.60
2022-11-29T06:28:52.290Z,7.60
2022-11-29T06:31:38.584Z,7.60
2022-11-29T06:34:42.186Z,7.60
2022-11-29T06:37:19.261Z,7.50
2022-11-29T06:39:49.541Z,7.50
2022-11-29T06:42:17.276Z,7.40
2022-11-29T06:44:47.808Z,7.40
2022-11-29T06:47:32.970Z,7.40
2022-11-29T06:50:41.940Z,7.30
2022-11-29T06:53:26.614Z,7.30
2022-11-29T06:56:05.072Z,7.30
2022-11-29T06:58:50.668Z,7.40
2022-11-29T07:01:44.435Z,7.40
2022-11-29T07:04:32.964Z,7.40
2022-11-29T07:07:00.094Z,7.40
2022-11-29T07:09:33.571Z,7.40
2022-11-29T07:12:00.889Z,7.40
2022-11-29T07:14:28.142Z,7.40
2022-11-29T07:17:16.204Z,7.40
2022-11-29T07:19:57.953Z,6.90
2022-11-29T07:22:47.944Z,7.20
2022-11-29T07:25:35.995Z,7.20
2022-11-29T07:28:22.272Z,7.30
2022-11-29T07:31:12.302Z,6.90
2022-11-29T07:34:02.092Z,7.20
2022-11-29T07:36:50.027Z,7.20
2022-11-29T07:39:21.667Z,7.20
2022-11-29T07:42:06.463Z,7.20
2022-11-29T07:44:51.415Z,7.20
2022-11-29T07:47:18.397Z,7.20
2022-11-29T07:49:45.755Z,7.20
2022-11-29T07:52:16.606Z,7.20
2022-11-29T07:54:44.275Z,7.10
2022-11-29T07:57:11.477Z,7.10
2022-11-29T07:59:38.515Z,7.30
2022-11-29T08:02:11.525Z,7.20
2022-11-29T08:04:45.062Z,7.10
2022-11-29T08:34:40.762Z,7.50
2022-11-29T08:37:09.286Z,7.60
2022-11-29T08:39:37.425Z,7.60
2022-11-29T08:42:12.152Z,7.60
2022-11-29T08:44:52.028Z,7.40
2022-11-29T08:47:40.725Z,7.80
2022-11-29T08:50:14.665Z,7.70
2022-11-29T08:53:10.912Z,7.70
2022-11-29T08:55:45.006Z,7.70
2022-11-29T09:04:31.161Z,7.80
2022-11-29T09:07:06.957Z,7.80
2022-11-29T09:15:21.008Z,7.90
2022-11-29T09:17:48.590Z,8.00
2022-11-29T09:20:15.994Z,8.10
2022-11-29T09:25:51.018Z,8.10
2022-11-29T09:28:21.799Z,7.80
2022-11-29T09:30:54.945Z,8.20
2022-11-29T09:33:25.420Z,7.90
2022-11-29T09:35:58.990Z,8.00
2022-11-29T09:38:37.796Z,8.40
2022-11-29T09:44:35.528Z,8.40
2022-11-29T09:47:22.413Z,8.50
2022-11-29T09:59:12.857Z,8.60
2022-11-29T10:01:53.634Z,8.60
2022-11-29T10:04:31.888Z,8.60
2022-11-29T10:07:10.420Z,8.60
2022-11-29T10:09:51.177Z,8.60
2022-11-29T10:30:28.777Z,8.50
2022-11-29T10:33:05.486Z,8.20
2022-11-29T10:59:12.116Z,8.80
2022-11-29T11:01:42.992Z,8.80
2022-11-29T11:04:21.154Z,8.70
2022-11-29T11:06:57.635Z,8.60
2022-11-29T11:09:40.464Z,8.60
2022-11-29T11:12:18.984Z,8.80
2022-11-29T11:14:47.258Z,8.50
2022-11-29T11:17:38.540Z,8.70
2022-11-29T11:26:19.338Z,8.60
2022-11-29T11:29:04.097Z,8.60
2022-11-29T11:31:34.305Z,8.60
2022-11-29T11:43:20.548Z,8.30
2022-11-29T11:45:53.930Z,8.20
2022-11-29T11:48:22.684Z,8.10
2022-11-29T11:50:55.313Z,8.10
2022-11-29T12:14:20.441Z,7.80
2022-11-29T12:16:52.733Z,7.80
2022-11-29T12:19:27.415Z,8.10
2022-11-29T12:25:22.357Z,7.90
2022-11-29T12:27:51.532Z,7.90
2022-11-29T12:30:19.187Z,8.00
2022-11-29T12:36:04.667Z,8.10
2022-11-29T12:38:48.022Z,8.40
2022-11-29T12:41:43.675Z,8.20
2022-11-29T12:44:53.407Z,7.90
2022-11-29T12:47:57.805Z,7.90
2022-11-29T12:50:40.413Z,7.90
2022-11-29T12:53:10.711Z,8.20
2022-11-29T12:56:04.011Z,8.30
2022-11-29T12:58:53.933Z,8.20
2022-11-29T13:01:46.607Z,8.10
2022-11-29T13:05:00.115Z,8.20
2022-11-29T13:14:34.694Z,8.30
2022-11-29T13:17:04.471Z,8.30
2022-11-29T13:19:45.340Z,8.30
2022-11-29T13:22:27.033Z,8.30
2022-11-29T13:25:01.942Z,8.30
2022-11-29T13:27:35.822Z,8.40
2022-11-29T13:30:04.547Z,8.50
2022-11-29T13:32:50.119Z,8.50
2022-11-29T13:35:32.717Z,8.50
2022-11-29T13:38:10.194Z,8.50
2022-11-29T13:40:53.647Z,8.40
2022-11-29T13:43:45.503Z,8.40
2022-11-29T13:46:19.837Z,8.40
2022-11-29T13:48:48.727Z,8.30
2022-11-29T13:51:37.103Z,8.30
2022-11-29T13:54:28.772Z,8.30
2022-11-29T13:57:03.100Z,8.30
2022-11-29T13:59:32.489Z,8.20
2022-11-29T14:01:59.783Z,8.20
2022-11-29T14:04:36.720Z,8.20
2022-11-29T14:07:14.116Z,8.20
2022-11-29T14:09:40.990Z,8.10
2022-11-29T14:12:36.735Z,8.10
2022-11-29T14:15:29.108Z,8.10
2022-11-29T14:18:02.542Z,8.10
2022-11-29T14:20:29.501Z,8.00
2022-11-29T14:23:05.556Z,8.00
2022-11-29T14:25:53.753Z,8.40
2022-11-29T14:28:23.747Z,8.00
2022-11-29T14:30:58.580Z,8.20
2022-11-29T14:33:35.557Z,8.00
2022-11-29T14:36:14.671Z,7.90
2022-11-29T14:39:21.290Z,7.90
2022-11-29T14:41:51.367Z,7.90
2022-11-29T14:44:24.776Z,7.90
2022-11-29T14:47:25.868Z,7.90
2022-11-29T14:49:55.454Z,7.90
2022-11-29T14:52:22.259Z,7.80
2022-11-29T14:54:56.275Z,8.20
2022-11-29T14:57:51.490Z,7.70
2022-11-29T15:00:21.652Z,7.70
2022-11-29T15:03:00.269Z,7.70
2022-11-29T15:05:37.050Z,7.70
2022-11-29T15:08:46.925Z,7.70
2022-11-29T15:11:18.141Z,7.60
2022-11-29T15:14:07.297Z,7.90
2022-11-29T15:16:43.835Z,7.60
2022-11-29T15:19:31.727Z,7.80
2022-11-29T15:22:28.554Z,7.50
2022-11-29T15:25:02.970Z,7.50
2022-11-29T15:27:30.120Z,7.50
2022-11-29T15:29:58.832Z,7.50
2022-11-29T15:32:31.026Z,7.50
2022-11-29T15:34:58.620Z,7.60
2022-11-29T15:37:35.479Z,7.50
2022-11-29T15:40:14.500Z,7.60
2022-11-29T15:42:43.541Z,7.50
2022-11-29T15:45:25.895Z,7.50
2022-11-29T15:47:53.401Z,7.60
2022-11-29T15:50:29.319Z,7.60
2022-11-29T15:53:01.234Z,7.60
2022-11-29T15:55:28.652Z,7.50
2022-11-29T15:58:02.620Z,7.50
2022-11-29T16:00:38.692Z,7.50
2022-11-29T16:03:29.317Z,7.50
2022-11-29T16:06:06.825Z,7.50
2022-11-29T16:08:40.619Z,7.50
2022-11-29T16:11:12.262Z,7.80
2022-11-29T16:13:42.630Z,7.40
2022-11-29T16:16:09.710Z,7.40
2022-11-29T16:18:37.175Z,7.40
2022-11-29T16:21:08.456Z,7.40
2022-11-29T16:23:42.429Z,7.00
2022-11-29T16:26:23.063Z,7.50
2022-11-29T16:28:52.401Z,7.50
2022-11-29T16:31:35.212Z,7.50
2022-11-29T16:34:34.222Z,7.80
2022-11-29T16:37:07.746Z,7.50
2022-11-29T16:39:37.817Z,7.80
2022-11-29T16:42:13.871Z,7.90
2022-11-29T16:44:41.271Z,7.50
2022-11-29T16:47:27.678Z,7.40
2022-11-29T16:50:15.820Z,7.40
2022-11-29T16:52:43.015Z,7.30
2022-11-29T16:55:09.950Z,7.20
2022-11-29T16:57:37.357Z,7.60
2022-11-29T17:00:23.633Z,7.20
2022-11-29T17:02:50.862Z,7.10
2022-11-29T17:05:17.840Z,7.20
2022-11-29T17:07:45.017Z,7.20
2022-11-29T17:10:17.051Z,7.40
2022-11-29T17:12:48.185Z,7.70
2022-11-29T17:15:15.478Z,7.50
2022-11-29T17:17:43.512Z,7.20
2022-11-29T17:20:12.860Z,7.30
2022-11-29T17:22:40.250Z,7.30
2022-11-29T17:25:07.674Z,7.30
2022-11-29T17:27:35.255Z,7.30
2022-11-29T17:30:03.406Z,7.70
2022-11-29T17:32:30.381Z,7.30
2022-11-29T17:34:57.367Z,7.40
2022-11-29T17:37:24.370Z,7.40
2022-11-29T17:39:51.327Z,7.30
2022-11-29T17:42:18.390Z,7.30
2022-11-29T17:44:45.271Z,7.30
2022-11-29T17:47:12.184Z,7.40
2022-11-29T17:49:39.013Z,7.50
2022-11-29T17:52:06.166Z,7.70
2022-11-29T17:54:33.316Z,7.50
2022-11-29T17:57:00.972Z,7.60
2022-11-29T17:59:27.820Z,7.30
2022-11-29T18:01:54.769Z,7.40
2022-11-29T18:04:21.897Z,7.70
2022-11-29T18:06:51.567Z,7.30
2022-11-29T18:09:19.623Z,7.60
2022-11-29T18:11:49.949Z,7.30
2022-11-29T18:14:21.024Z,7.40
2022-11-29T18:16:47.998Z,7.40
2022-11-29T18:19:17.934Z,7.70
2022-11-29T18:21:45.050Z,7.30
2022-11-29T18:24:12.368Z,7.30
2022-11-29T18:26:40.376Z,7.20
2022-11-29T18:29:07.741Z,7.50
2022-11-29T18:31:37.681Z,7.50
2022-11-29T18:34:07.240Z,7.20
2022-11-29T18:36:37.446Z,7.20
2022-11-29T18:39:10.347Z,7.20
2022-11-29T18:41:37.969Z,7.20
2022-11-29T18:44:09.912Z,7.20
2022-11-29T18:46:41.556Z,7.20
2022-11-29T18:49:11.023Z,7.20
2022-11-29T18:51:39.078Z,7.60
2022-11-29T18:54:06.503Z,7.30
2022-11-29T18:56:34.875Z,7.70
2022-11-29T18:59:08.499Z,7.20
2022-11-29T19:01:40.763Z,7.10
2022-11-29T19:04:09.644Z,7.40
2022-11-29T19:06:39.878Z,7.10
2022-11-29T19:09:11.632Z,7.00
2022-11-29T19:11:39.036Z,7.10
2022-11-29T19:14:11.779Z,7.10
2022-11-29T19:16:41.700Z,7.30
2022-11-29T19:19:08.739Z,7.10
2022-11-29T19:21:35.777Z,7.10
2022-11-29T19:24:05.648Z,7.10
2022-11-29T19:26:33.502Z,7.10
2022-11-29T19:29:01.720Z,7.10
2022-11-29T19:31:29.184Z,7.20
2022-11-29T19:33:57.174Z,7.40
2022-11-29T19:36:33.154Z,7.20
2022-11-29T19:39:01.626Z,7.20
2022-11-29T19:41:34.202Z,7.20
2022-11-29T19:44:04.067Z,7.20
2022-11-29T19:46:36.883Z,7.20
2022-11-29T19:49:06.170Z,7.20
2022-11-29T19:51:33.911Z,7.20
2022-11-29T19:54:02.836Z,7.20
2022-11-29T19:56:31.209Z,7.10
2022-11-29T19:59:01.912Z,7.20
2022-11-29T20:01:37.722Z,7.10
2022-11-29T20:04:06.659Z,7.10
2022-11-29T20:06:33.807Z,7.10
2022-11-29T20:09:01.009Z,7.10
2022-11-29T20:11:28.170Z,7.10
2022-11-29T20:14:00.333Z,7.10
2022-11-29T20:16:28.452Z,7.20
2022-11-29T20:18:56.132Z,7.20
2022-11-29T20:21:26.256Z,7.50
2022-11-29T20:24:02.005Z,7.60
2022-11-29T20:26:30.919Z,7.20
2022-11-29T20:28:59.082Z,7.30
2022-11-29T20:31:26.288Z,7.30
2022-11-29T20:33:54.576Z,7.20
2022-11-29T20:36:36.511Z,7.20
2022-11-29T20:39:42.527Z,7.20
2022-11-29T20:42:37.713Z,7.20
2022-11-29T20:45:07.718Z,7.20
2022-11-29T20:47:54.304Z,7.10
2022-11-29T20:50:24.266Z,7.10
2022-11-29T20:53:06.425Z,7.00
2022-11-29T20:55:33.578Z,7.10
2022-11-29T20:58:00.487Z,7.30
2022-11-29T21:00:27.575Z,7.40
2022-11-29T21:02:54.507Z,7.00
2022-11-29T21:05:21.410Z,7.00
2022-11-29T21:07:48.460Z,7.10
2022-11-29T21:10:15.561Z,7.00
2022-11-29T21:12:45.573Z,7.10
2022-11-29T21:15:14.172Z,7.10
2022-11-29T21:17:42.617Z,7.20
2022-11-29T21:20:18.087Z,7.20
2022-11-29T21:23:03.988Z,7.30
2022-11-29T21:26:13.417Z,7.20
2022-11-29T21:28:52.856Z,7.20
2022-11-29T21:31:20.049Z,7.30
2022-11-29T21:33:47.209Z,7.20
2022-11-29T21:36:14.246Z,7.10
2022-11-29T21:38:41.701Z,7.20
2022-11-29T21:41:08.663Z,7.10
2022-11-29T21:44:04.832Z,7.20
2022-11-29T21:46:22.364Z,7.40
2022-11-29T21:48:50.028Z,7.20
2022-11-29T21:51:17.021Z,7.20
2022-11-29T21:53:44.789Z,7.20
2022-11-29T21:56:12.080Z,7.20
2022-11-29T21:58:39.601Z,7.20
2022-11-29T22:01:18.466Z,7.30
2022-11-29T22:03:46.062Z,7.30
2022-11-29T22:06:20.812Z,7.30
2022-11-29T22:08:48.621Z,7.30
2022-11-29T22:11:30.859Z,7.30
2022-11-29T22:14:14.589Z,7.50
2022-11-29T22:16:53.649Z,7.30
2022-11-29T22:19:30.663Z,7.30
2022-11-29T22:22:00.444Z,7.30
2022-11-29T22:24:29.797Z,7.40
2022-11-29T22:26:57.098Z,7.50
2022-11-29T22:29:24.674Z,7.40
2022-11-29T22:31:53.446Z,7.40
2022-11-29T22:34:22.096Z,7.40
2022-11-29T22:36:49.259Z,7.40
2022-11-29T22:39:16.386Z,7.40
2022-11-29T22:41:43.603Z,7.40
2022-11-29T22:44:10.674Z,7.30
2022-11-29T22:46:40.661Z,7.40
2022-11-29T22:49:07.778Z,7.40
2022-11-29T22:51:36.836Z,7.30
2022-11-29T22:54:06.638Z,7.30
2022-11-29T22:56:36.674Z,7.30
2022-11-29T22:59:04.240Z,7.20
2022-11-29T23:01:32.902Z,7.20
2022-11-29T23:04:04.025Z,7.20
2022-11-29T23:06:42.484Z,7.10
2022-11-29T23:09:19.896Z,7.20
2022-11-29T23:11:51.945Z,7.20
2022-11-29T23:14:19.962Z,7.30
2022-11-29T23:16:46.901Z,7.30
2022-11-29T23:19:14.260Z,7.20
2022-11-29T23:21:41.551Z,7.20
2022-11-29T23:24:08.529Z,7.20
2022-11-29T23:26:39.619Z,7.10
2022-11-29T23:29:09.097Z,7.20
2022-11-29T23:31:36.093Z,7.10
2022-11-29T23:34:03.406Z,7.10
2022-11-29T23:36:30.499Z,7.10
2022-11-29T23:38:57.502Z,7.10
2022-11-29T23:41:24.436Z,7.00
2022-11-29T23:43:51.278Z,7.10
2022-11-29T23:46:20.708Z,7.10
2022-11-29T23:48:48.192Z,7.40
2022-11-29T23:51:16.148Z,7.10
2022-11-29T23:53:43.470Z,7.20
2022-11-29T23:56:13.616Z,7.20
2022-11-29T23:58:41.051Z,7.60
